sensor_id;sensor_type;location;lat;lon;timestamp;pressure;altitude;pressure_sealevel;temperature;humidity
70930;BME280;58588;48.102;19.682;2023-02-14T00:00:42;101161.69;;;-3.11;100.00
70930;BME280;58588;48.102;19.682;2023-02-14T00:03:44;101160.38;;;-3.01;100.00
70930;BME280;58588;48.102;19.682;2023-02-14T00:06:47;101169.91;;;-3.20;100.00
70930;BME280;58588;48.102;19.682;2023-02-14T00:09:49;101170.44;;;-3.11;100.00
70930;BME280;58588;48.102;19.682;2023-02-14T00:12:51;101170.31;;;-3.08;100.00
70930;BME280;58588;48.102;19.682;2023-02-14T00:15:57;101174.81;;;-3.10;100.00
70930;BME280;58588;48.102;19.682;2023-02-14T00:18:58;101172.31;;;-3.14;100.00
70930;BME280;58588;48.102;19.682;2023-02-14T00:22:05;101179.31;;;-3.13;100.00
70930;BME280;58588;48.102;19.682;2023-02-14T00:25:08;101174.16;;;-3.16;100.00
70930;BME280;58588;48.102;19.682;2023-02-14T00:28:10;101171.63;;;-3.19;100.00
70930;BME280;58588;48.102;19.682;2023-02-14T00:31:13;101174.44;;;-3.24;100.00
70930;BME280;58588;48.102;19.682;2023-02-14T00:34:16;101157.72;;;-3.23;100.00
70930;BME280;58588;48.102;19.682;2023-02-14T00:37:18;101161.38;;;-3.27;100.00
70930;BME280;58588;48.102;19.682;2023-02-14T00:40:20;101169.91;;;-3.44;100.00
70930;BME280;58588;48.102;19.682;2023-02-14T00:43:22;101164.56;;;-3.42;100.00
70930;BME280;58588;48.102;19.682;2023-02-14T00:46:26;101172.19;;;-3.58;100.00
70930;BME280;58588;48.102;19.682;2023-02-14T00:49:28;101170.19;;;-3.52;100.00
70930;BME280;58588;48.102;19.682;2023-02-14T00:52:30;101170.03;;;-3.47;100.00
70930;BME280;58588;48.102;19.682;2023-02-14T00:55:32;101171.91;;;-3.51;100.00
70930;BME280;58588;48.102;19.682;2023-02-14T00:58:34;101182.19;;;-3.68;100.00
70930;BME280;58588;48.102;19.682;2023-02-14T01:01:38;101183.03;;;-3.67;100.00
70930;BME280;58588;48.102;19.682;2023-02-14T01:04:40;101179.59;;;-3.69;100.00
70930;BME280;58588;48.102;19.682;2023-02-14T01:07:42;101177.91;;;-3.70;100.00
70930;BME280;58588;48.102;19.682;2023-02-14T01:10:44;101171.78;;;-3.72;100.00
70930;BME280;58588;48.102;19.682;2023-02-14T01:13:48;101178.53;;;-3.64;100.00
70930;BME280;58588;48.102;19.682;2023-02-14T01:16:52;101166.75;;;-3.79;100.00
70930;BME280;58588;48.102;19.682;2023-02-14T01:19:54;101160.38;;;-3.71;100.00
70930;BME280;58588;48.102;19.682;2023-02-14T01:22:56;101159.97;;;-3.86;100.00
70930;BME280;58588;48.102;19.682;2023-02-14T01:26:03;101156.41;;;-3.85;100.00
70930;BME280;58588;48.102;19.682;2023-02-14T01:29:05;101161.09;;;-3.93;100.00
70930;BME280;58588;48.102;19.682;2023-02-14T01:32:09;101155.56;;;-3.85;100.00
70930;BME280;58588;48.102;19.682;2023-02-14T01:35:11;101149.16;;;-4.03;100.00
70930;BME280;58588;48.102;19.682;2023-02-14T01:38:13;101144.53;;;-3.96;100.00
70930;BME280;58588;48.102;19.682;2023-02-14T01:41:15;101146.16;;;-3.92;100.00
70930;BME280;58588;48.102;19.682;2023-02-14T01:44:55;101149.66;;;-3.92;100.00
70930;BME280;58588;48.102;19.682;2023-02-14T01:47:59;101145.94;;;-3.86;100.00
70930;BME280;58588;48.102;19.682;2023-02-14T01:51:01;101136.31;;;-3.87;100.00
70930;BME280;58588;48.102;19.682;2023-02-14T01:54:05;101144.00;;;-3.81;100.00
70930;BME280;58588;48.102;19.682;2023-02-14T01:57:10;101141.75;;;-3.92;100.00
70930;BME280;58588;48.102;19.682;2023-02-14T02:00:14;101122.28;;;-4.13;100.00
70930;BME280;58588;48.102;19.682;2023-02-14T02:03:43;101119.25;;;-4.00;100.00
70930;BME280;58588;48.102;19.682;2023-02-14T02:06:51;101116.22;;;-3.90;100.00
70930;BME280;58588;48.102;19.682;2023-02-14T02:09:56;101113.59;;;-3.90;100.00
70930;BME280;58588;48.102;19.682;2023-02-14T02:13:06;101121.16;;;-3.81;100.00
70930;BME280;58588;48.102;19.682;2023-02-14T02:16:40;101127.00;;;-3.97;100.00
70930;BME280;58588;48.102;19.682;2023-02-14T02:20:27;101114.50;;;-3.91;100.00
70930;BME280;58588;48.102;19.682;2023-02-14T02:27:36;101111.91;;;-3.92;100.00
70930;BME280;58588;48.102;19.682;2023-02-14T02:30:59;101114.75;;;-3.98;100.00
70930;BME280;58588;48.102;19.682;2023-02-14T02:35:04;101105.94;;;-3.97;100.00
70930;BME280;58588;48.102;19.682;2023-02-14T02:38:23;101111.34;;;-4.00;100.00
70930;BME280;58588;48.102;19.682;2023-02-14T02:41:38;101103.75;;;-4.10;100.00
70930;BME280;58588;48.102;19.682;2023-02-14T02:44:50;101106.44;;;-4.11;100.00
70930;BME280;58588;48.102;19.682;2023-02-14T02:48:01;101112.13;;;-4.23;100.00
70930;BME280;58588;48.102;19.682;2023-02-14T02:51:11;101096.34;;;-4.23;100.00
70930;BME280;58588;48.102;19.682;2023-02-14T02:54:37;101100.75;;;-4.24;100.00
70930;BME280;58588;48.102;19.682;2023-02-14T02:57:41;101103.53;;;-4.28;100.00
70930;BME280;58588;48.102;19.682;2023-02-14T03:00:45;101103.47;;;-4.27;100.00
70930;BME280;58588;48.102;19.682;2023-02-14T03:03:52;101100.19;;;-4.34;100.00
70930;BME280;58588;48.102;19.682;2023-02-14T03:07:13;101108.63;;;-4.24;100.00
70930;BME280;58588;48.102;19.682;2023-02-14T03:10:35;101106.31;;;-4.33;100.00
70930;BME280;58588;48.102;19.682;2023-02-14T03:14:05;101100.13;;;-4.32;100.00
70930;BME280;58588;48.102;19.682;2023-02-14T03:17:15;101097.69;;;-4.38;100.00
70930;BME280;58588;48.102;19.682;2023-02-14T03:20:32;101103.69;;;-4.60;100.00
70930;BME280;58588;48.102;19.682;2023-02-14T03:23:40;101107.47;;;-4.42;100.00
70930;BME280;58588;48.102;19.682;2023-02-14T03:26:47;101096.44;;;-4.53;100.00
70930;BME280;58588;48.102;19.682;2023-02-14T03:29:55;101098.28;;;-4.55;100.00
70930;BME280;58588;48.102;19.682;2023-02-14T03:33:02;101099.44;;;-4.64;100.00
70930;BME280;58588;48.102;19.682;2023-02-14T03:36:08;101089.97;;;-4.69;100.00
70930;BME280;58588;48.102;19.682;2023-02-14T03:39:18;101096.66;;;-4.59;100.00
70930;BME280;58588;48.102;19.682;2023-02-14T03:42:25;101102.00;;;-4.62;100.00
70930;BME280;58588;48.102;19.682;2023-02-14T03:45:32;101120.19;;;-4.54;100.00
70930;BME280;58588;48.102;19.682;2023-02-14T03:48:37;101121.66;;;-4.46;100.00
70930;BME280;58588;48.102;19.682;2023-02-14T03:51:44;101119.94;;;-4.47;100.00
70930;BME280;58588;48.102;19.682;2023-02-14T03:54:52;101120.19;;;-4.54;100.00
70930;BME280;58588;48.102;19.682;2023-02-14T03:58:01;101120.72;;;-4.71;100.00
70930;BME280;58588;48.102;19.682;2023-02-14T04:01:09;101120.16;;;-4.81;100.00
70930;BME280;58588;48.102;19.682;2023-02-14T04:04:13;101118.44;;;-4.82;100.00
70930;BME280;58588;48.102;19.682;2023-02-14T04:07:20;101108.09;;;-4.88;100.00
70930;BME280;58588;48.102;19.682;2023-02-14T04:10:25;101107.78;;;-4.77;100.00
70930;BME280;58588;48.102;19.682;2023-02-14T04:13:27;101103.97;;;-4.69;100.00
70930;BME280;58588;48.102;19.682;2023-02-14T04:16:29;101110.34;;;-4.76;100.00
70930;BME280;58588;48.102;19.682;2023-02-14T04:19:51;101104.56;;;-4.87;100.00
70930;BME280;58588;48.102;19.682;2023-02-14T04:22:52;101105.28;;;-4.82;100.00
70930;BME280;58588;48.102;19.682;2023-02-14T04:25:56;101100.28;;;-4.90;100.00
70930;BME280;58588;48.102;19.682;2023-02-14T04:28:58;101104.22;;;-5.04;100.00
70930;BME280;58588;48.102;19.682;2023-02-14T04:32:00;101107.53;;;-4.98;100.00
70930;BME280;58588;48.102;19.682;2023-02-14T04:35:02;101099.16;;;-5.11;100.00
70930;BME280;58588;48.102;19.682;2023-02-14T04:38:04;101094.81;;;-5.12;100.00
70930;BME280;58588;48.102;19.682;2023-02-14T04:41:07;101102.94;;;-5.19;100.00
70930;BME280;58588;48.102;19.682;2023-02-14T04:44:09;101103.13;;;-5.25;100.00
70930;BME280;58588;48.102;19.682;2023-02-14T04:47:11;101101.50;;;-5.29;100.00
70930;BME280;58588;48.102;19.682;2023-02-14T04:50:14;101110.88;;;-5.21;100.00
70930;BME280;58588;48.102;19.682;2023-02-14T04:53:16;101104.03;;;-5.26;100.00
70930;BME280;58588;48.102;19.682;2023-02-14T04:56:20;101107.84;;;-5.36;100.00
70930;BME280;58588;48.102;19.682;2023-02-14T04:59:22;101105.06;;;-5.61;100.00
70930;BME280;58588;48.102;19.682;2023-02-14T05:02:24;101096.09;;;-5.54;100.00
70930;BME280;58588;48.102;19.682;2023-02-14T05:05:26;101096.47;;;-5.37;100.00
70930;BME280;58588;48.102;19.682;2023-02-14T05:08:28;101104.72;;;-5.20;100.00
70930;BME280;58588;48.102;19.682;2023-02-14T05:11:32;101090.44;;;-5.41;100.00
70930;BME280;58588;48.102;19.682;2023-02-14T05:14:34;101098.72;;;-5.25;100.00
70930;BME280;58588;48.102;19.682;2023-02-14T05:17:36;101093.47;;;-5.25;100.00
70930;BME280;58588;48.102;19.682;2023-02-14T05:20:38;101105.75;;;-5.25;100.00
70930;BME280;58588;48.102;19.682;2023-02-14T05:23:40;101102.31;;;-5.27;100.00
70930;BME280;58588;48.102;19.682;2023-02-14T05:26:43;101091.16;;;-5.35;100.00
70930;BME280;58588;48.102;19.682;2023-02-14T05:29:46;101077.59;;;-5.50;100.00
70930;BME280;58588;48.102;19.682;2023-02-14T05:32:48;101091.09;;;-5.32;100.00
70930;BME280;58588;48.102;19.682;2023-02-14T05:35:50;101098.38;;;-5.42;100.00
70930;BME280;58588;48.102;19.682;2023-02-14T05:38:52;101110.41;;;-5.35;100.00
70930;BME280;58588;48.102;19.682;2023-02-14T05:41:56;101112.38;;;-5.42;100.00
70930;BME280;58588;48.102;19.682;2023-02-14T05:44:58;101108.69;;;-5.36;100.00
70930;BME280;58588;48.102;19.682;2023-02-14T05:48:00;101121.22;;;-5.44;100.00
70930;BME280;58588;48.102;19.682;2023-02-14T05:51:03;101123.00;;;-5.46;100.00
70930;BME280;58588;48.102;19.682;2023-02-14T05:54:05;101133.59;;;-5.49;100.00
70930;BME280;58588;48.102;19.682;2023-02-14T05:57:09;101130.03;;;-5.47;100.00
70930;BME280;58588;48.102;19.682;2023-02-14T06:00:12;101135.06;;;-5.39;100.00
70930;BME280;58588;48.102;19.682;2023-02-14T06:03:14;101140.06;;;-5.30;100.00
70930;BME280;58588;48.102;19.682;2023-02-14T06:06:16;101143.09;;;-5.44;100.00
70930;BME280;58588;48.102;19.682;2023-02-14T06:09:18;101145.22;;;-5.58;100.00
70930;BME280;58588;48.102;19.682;2023-02-14T06:12:22;101150.28;;;-5.50;100.00
70930;BME280;58588;48.102;19.682;2023-02-14T06:15:24;101151.25;;;-5.54;100.00
70930;BME280;58588;48.102;19.682;2023-02-14T06:18:26;101152.06;;;-5.52;100.00
70930;BME280;58588;48.102;19.682;2023-02-14T06:21:29;101163.13;;;-5.40;100.00
70930;BME280;58588;48.102;19.682;2023-02-14T06:24:31;101173.53;;;-5.36;100.00
70930;BME280;58588;48.102;19.682;2023-02-14T06:27:34;101182.44;;;-5.42;100.00
70930;BME280;58588;48.102;19.682;2023-02-14T06:30:36;101171.94;;;-5.42;100.00
70930;BME280;58588;48.102;19.682;2023-02-14T06:33:38;101167.66;;;-5.46;100.00
70930;BME280;58588;48.102;19.682;2023-02-14T06:36:40;101178.34;;;-5.21;100.00
70930;BME280;58588;48.102;19.682;2023-02-14T06:39:42;101184.88;;;-5.05;100.00
70930;BME280;58588;48.102;19.682;2023-02-14T06:42:46;101187.28;;;-4.97;100.00
70930;BME280;58588;48.102;19.682;2023-02-14T06:45:48;101180.88;;;-4.89;100.00
70930;BME280;58588;48.102;19.682;2023-02-14T06:48:50;101182.53;;;-4.85;100.00
70930;BME280;58588;48.102;19.682;2023-02-14T06:51:52;101188.34;;;-4.75;100.00
70930;BME280;58588;48.102;19.682;2023-02-14T06:54:54;101185.44;;;-4.66;100.00
70930;BME280;58588;48.102;19.682;2023-02-14T06:57:57;101193.28;;;-4.64;100.00
70930;BME280;58588;48.102;19.682;2023-02-14T07:00:59;101184.34;;;-4.59;100.00
70930;BME280;58588;48.102;19.682;2023-02-14T07:04:01;101193.50;;;-4.44;100.00
70930;BME280;58588;48.102;19.682;2023-02-14T07:07:04;101197.22;;;-4.23;100.00
70930;BME280;58588;48.102;19.682;2023-02-14T07:10:06;101198.09;;;-4.22;100.00
70930;BME280;58588;48.102;19.682;2023-02-14T07:13:10;101199.44;;;-4.11;100.00
70930;BME280;58588;48.102;19.682;2023-02-14T07:16:12;101199.84;;;-3.96;100.00
70930;BME280;58588;48.102;19.682;2023-02-14T07:19:14;101203.69;;;-3.80;100.00
70930;BME280;58588;48.102;19.682;2023-02-14T07:22:16;101208.97;;;-3.55;100.00
70930;BME280;58588;48.102;19.682;2023-02-14T07:25:18;101197.81;;;-3.38;100.00
70930;BME280;58588;48.102;19.682;2023-02-14T07:28:24;101196.88;;;-3.36;100.00
70930;BME280;58588;48.102;19.682;2023-02-14T07:31:26;101196.84;;;-3.12;100.00
70930;BME280;58588;48.102;19.682;2023-02-14T07:34:28;101202.19;;;-2.90;100.00
70930;BME280;58588;48.102;19.682;2023-02-14T07:37:31;101200.56;;;-2.93;100.00
70930;BME280;58588;48.102;19.682;2023-02-14T07:40:33;101203.06;;;-2.90;100.00
70930;BME280;58588;48.102;19.682;2023-02-14T07:43:36;101199.03;;;-2.77;100.00
70930;BME280;58588;48.102;19.682;2023-02-14T07:46:39;101205.75;;;-2.46;100.00
70930;BME280;58588;48.102;19.682;2023-02-14T07:49:41;101209.38;;;-2.27;100.00
70930;BME280;58588;48.102;19.682;2023-02-14T07:52:43;101204.53;;;-2.16;100.00
70930;BME280;58588;48.102;19.682;2023-02-14T07:55:48;101210.03;;;-2.00;100.00
70930;BME280;58588;48.102;19.682;2023-02-14T07:58:53;101209.25;;;-1.81;100.00
70930;BME280;58588;48.102;19.682;2023-02-14T08:01:55;101210.66;;;-1.73;100.00
70930;BME280;58588;48.102;19.682;2023-02-14T08:04:57;101207.06;;;-1.51;100.00
70930;BME280;58588;48.102;19.682;2023-02-14T08:07:59;101210.22;;;-1.23;100.00
70930;BME280;58588;48.102;19.682;2023-02-14T08:11:01;101211.84;;;-1.00;100.00
70930;BME280;58588;48.102;19.682;2023-02-14T08:14:04;101207.50;;;-0.82;100.00
70930;BME280;58588;48.102;19.682;2023-02-14T08:17:07;101203.53;;;-0.55;100.00
70930;BME280;58588;48.102;19.682;2023-02-14T08:20:10;101200.94;;;-0.37;100.00
70930;BME280;58588;48.102;19.682;2023-02-14T08:23:12;101210.16;;;-0.27;100.00
70930;BME280;58588;48.102;19.682;2023-02-14T08:26:14;101209.91;;;-0.04;100.00
70930;BME280;58588;48.102;19.682;2023-02-14T08:29:18;101207.59;;;0.25;100.00
70930;BME280;58588;48.102;19.682;2023-02-14T08:32:20;101210.69;;;0.33;100.00
70930;BME280;58588;48.102;19.682;2023-02-14T08:35:22;101215.06;;;0.51;100.00
70930;BME280;58588;48.102;19.682;2023-02-14T08:38:24;101219.25;;;0.73;100.00
70930;BME280;58588;48.102;19.682;2023-02-14T08:41:26;101220.34;;;1.02;100.00
70930;BME280;58588;48.102;19.682;2023-02-14T08:44:32;101223.91;;;1.18;100.00
70930;BME280;58588;48.102;19.682;2023-02-14T08:47:36;101220.66;;;1.29;100.00
70930;BME280;58588;48.102;19.682;2023-02-14T08:50:40;101226.44;;;1.69;100.00
70930;BME280;58588;48.102;19.682;2023-02-14T08:53:42;101232.72;;;1.98;100.00
70930;BME280;58588;48.102;19.682;2023-02-14T08:56:45;101232.00;;;2.26;100.00
70930;BME280;58588;48.102;19.682;2023-02-14T08:59:49;101231.97;;;2.41;100.00
70930;BME280;58588;48.102;19.682;2023-02-14T09:02:52;101235.97;;;2.49;100.00
70930;BME280;58588;48.102;19.682;2023-02-14T09:05:54;101236.78;;;2.65;100.00
70930;BME280;58588;48.102;19.682;2023-02-14T09:08:56;101231.25;;;2.68;100.00
70930;BME280;58588;48.102;19.682;2023-02-14T09:12:02;101224.91;;;2.85;100.00
70930;BME280;58588;48.102;19.682;2023-02-14T09:15:07;101232.44;;;3.07;100.00
70930;BME280;58588;48.102;19.682;2023-02-14T09:18:10;101224.13;;;3.40;100.00
70930;BME280;58588;48.102;19.682;2023-02-14T09:21:13;101223.50;;;3.36;100.00
70930;BME280;58588;48.102;19.682;2023-02-14T09:24:16;101219.31;;;3.73;100.00
70930;BME280;58588;48.102;19.682;2023-02-14T09:27:18;101209.28;;;4.04;100.00
70930;BME280;58588;48.102;19.682;2023-02-14T09:30:23;101210.03;;;4.06;100.00
70930;BME280;58588;48.102;19.682;2023-02-14T09:33:26;101209.75;;;4.11;100.00
70930;BME280;58588;48.102;19.682;2023-02-14T09:36:29;101208.22;;;4.34;100.00
70930;BME280;58588;48.102;19.682;2023-02-14T09:39:31;101196.41;;;4.63;100.00
70930;BME280;58588;48.102;19.682;2023-02-14T09:42:39;101197.91;;;4.80;100.00
70930;BME280;58588;48.102;19.682;2023-02-14T09:45:50;101210.59;;;4.89;100.00
70930;BME280;58588;48.102;19.682;2023-02-14T09:48:55;101214.25;;;4.88;100.00
70930;BME280;58588;48.102;19.682;2023-02-14T09:52:02;101217.03;;;4.99;100.00
70930;BME280;58588;48.102;19.682;2023-02-14T09:55:12;101198.53;;;4.96;100.00
70930;BME280;58588;48.102;19.682;2023-02-14T09:58:19;101194.53;;;5.27;100.00
70930;BME280;58588;48.102;19.682;2023-02-14T10:01:25;101198.50;;;5.22;100.00
70930;BME280;58588;48.102;19.682;2023-02-14T10:04:33;101189.59;;;5.21;100.00
70930;BME280;58588;48.102;19.682;2023-02-14T10:07:49;101192.47;;;5.44;100.00
70930;BME280;58588;48.102;19.682;2023-02-14T10:11:02;101193.59;;;5.65;100.00
70930;BME280;58588;48.102;19.682;2023-02-14T10:14:11;101195.13;;;5.80;100.00
70930;BME280;58588;48.102;19.682;2023-02-14T10:17:21;101183.06;;;5.99;100.00
70930;BME280;58588;48.102;19.682;2023-02-14T10:20:27;101190.31;;;6.09;98.76
70930;BME280;58588;48.102;19.682;2023-02-14T10:23:34;101197.50;;;6.44;94.39
70930;BME280;58588;48.102;19.682;2023-02-14T10:26:38;101191.50;;;6.40;95.24
70930;BME280;58588;48.102;19.682;2023-02-14T10:29:42;101191.34;;;6.66;93.16
70930;BME280;58588;48.102;19.682;2023-02-14T10:32:47;101186.47;;;6.71;91.62
70930;BME280;58588;48.102;19.682;2023-02-14T10:35:54;101187.59;;;6.91;90.59
70930;BME280;58588;48.102;19.682;2023-02-14T10:39:04;101184.53;;;6.95;89.71
70930;BME280;58588;48.102;19.682;2023-02-14T10:42:16;101182.84;;;7.28;87.18
70930;BME280;58588;48.102;19.682;2023-02-14T10:45:26;101184.81;;;7.15;85.17
70930;BME280;58588;48.102;19.682;2023-02-14T10:48:47;101176.69;;;7.60;84.57
70930;BME280;58588;48.102;19.682;2023-02-14T10:51:56;101178.63;;;7.80;83.57
70930;BME280;58588;48.102;19.682;2023-02-14T10:55:09;101179.97;;;8.07;82.17
70930;BME280;58588;48.102;19.682;2023-02-14T10:58:14;101166.94;;;7.70;81.42
70930;BME280;58588;48.102;19.682;2023-02-14T11:01:18;101162.75;;;7.77;79.93
70930;BME280;58588;48.102;19.682;2023-02-14T11:04:23;101160.66;;;8.13;77.97
70930;BME280;58588;48.102;19.682;2023-02-14T11:07:26;101159.44;;;7.85;77.19
70930;BME280;58588;48.102;19.682;2023-02-14T11:10:31;101154.63;;;8.20;78.07
70930;BME280;58588;48.102;19.682;2023-02-14T11:13:35;101154.75;;;8.51;75.67
70930;BME280;58588;48.102;19.682;2023-02-14T11:16:37;101141.91;;;8.54;77.20
70930;BME280;58588;48.102;19.682;2023-02-14T11:19:55;101145.00;;;8.80;75.41
70930;BME280;58588;48.102;19.682;2023-02-14T11:22:57;101147.34;;;8.64;73.59
70930;BME280;58588;48.102;19.682;2023-02-14T11:26:00;101145.88;;;8.81;75.30
70930;BME280;58588;48.102;19.682;2023-02-14T11:29:11;101155.66;;;8.82;72.35
70930;BME280;58588;48.102;19.682;2023-02-14T11:32:19;101145.91;;;9.21;72.87
70930;BME280;58588;48.102;19.682;2023-02-14T11:35:25;101147.59;;;9.22;71.53
70930;BME280;58588;48.102;19.682;2023-02-14T11:38:35;101141.22;;;9.23;67.15
70930;BME280;58588;48.102;19.682;2023-02-14T11:41:48;101140.91;;;9.17;67.45
70930;BME280;58588;48.102;19.682;2023-02-14T11:44:54;101136.78;;;9.43;68.17
70930;BME280;58588;48.102;19.682;2023-02-14T11:48:17;101139.47;;;9.53;66.89
70930;BME280;58588;48.102;19.682;2023-02-14T11:51:29;101142.78;;;9.66;64.76
70930;BME280;58588;48.102;19.682;2023-02-14T11:54:34;101126.84;;;9.53;64.12
70930;BME280;58588;48.102;19.682;2023-02-14T11:57:37;101137.22;;;9.77;65.02
70930;BME280;58588;48.102;19.682;2023-02-14T12:00:50;101122.22;;;9.94;63.63
70930;BME280;58588;48.102;19.682;2023-02-14T12:03:54;101128.47;;;10.14;62.19
70930;BME280;58588;48.102;19.682;2023-02-14T12:07:14;101118.41;;;10.35;61.82
70930;BME280;58588;48.102;19.682;2023-02-14T12:10:23;101111.31;;;10.25;63.40
70930;BME280;58588;48.102;19.682;2023-02-14T12:13:25;101115.50;;;10.66;60.37
70930;BME280;58588;48.102;19.682;2023-02-14T12:16:33;101111.03;;;10.28;59.65
70930;BME280;58588;48.102;19.682;2023-02-14T12:19:43;101108.03;;;10.11;59.75
70930;BME280;58588;48.102;19.682;2023-02-14T12:22:53;101108.59;;;10.05;61.26
70930;BME280;58588;48.102;19.682;2023-02-14T12:26:01;101099.94;;;10.50;61.54
70930;BME280;58588;48.102;19.682;2023-02-14T12:29:10;101105.03;;;10.53;61.58
70930;BME280;58588;48.102;19.682;2023-02-14T12:32:19;101097.41;;;10.39;61.24
70930;BME280;58588;48.102;19.682;2023-02-14T12:35:35;101089.38;;;10.66;62.01
70930;BME280;58588;48.102;19.682;2023-02-14T12:38:50;101084.19;;;10.83;58.85
70930;BME280;58588;48.102;19.682;2023-02-14T12:42:03;101088.91;;;10.81;58.19
70930;BME280;58588;48.102;19.682;2023-02-14T12:45:13;101092.63;;;10.70;57.77
70930;BME280;58588;48.102;19.682;2023-02-14T12:48:24;101087.94;;;10.72;59.99
70930;BME280;58588;48.102;19.682;2023-02-14T12:51:39;101078.94;;;10.44;58.29
70930;BME280;58588;48.102;19.682;2023-02-14T12:54:56;101070.38;;;10.68;57.03
70930;BME280;58588;48.102;19.682;2023-02-14T12:58:15;101070.84;;;11.09;57.75
70930;BME280;58588;48.102;19.682;2023-02-14T13:04:55;101059.56;;;10.95;57.68
70930;BME280;58588;48.102;19.682;2023-02-14T13:08:08;101058.88;;;10.93;57.01
70930;BME280;58588;48.102;19.682;2023-02-14T13:11:22;101061.66;;;11.02;56.72
70930;BME280;58588;48.102;19.682;2023-02-14T13:14:43;101057.84;;;11.04;56.59
70930;BME280;58588;48.102;19.682;2023-02-14T13:17:50;101060.25;;;10.70;56.14
70930;BME280;58588;48.102;19.682;2023-02-14T13:20:55;101055.94;;;11.32;57.25
70930;BME280;58588;48.102;19.682;2023-02-14T13:24:10;101058.50;;;11.16;56.33
70930;BME280;58588;48.102;19.682;2023-02-14T13:27:20;101051.59;;;10.66;56.09
70930;BME280;58588;48.102;19.682;2023-02-14T13:30:29;101052.19;;;10.97;56.69
70930;BME280;58588;48.102;19.682;2023-02-14T13:33:34;101054.13;;;11.05;56.42
70930;BME280;58588;48.102;19.682;2023-02-14T13:36:38;101054.69;;;11.26;55.70
70930;BME280;58588;48.102;19.682;2023-02-14T13:39:43;101054.38;;;10.84;56.16
70930;BME280;58588;48.102;19.682;2023-02-14T13:42:56;101048.53;;;11.16;56.75
70930;BME280;58588;48.102;19.682;2023-02-14T13:45:58;101048.78;;;10.95;56.50
70930;BME280;58588;48.102;19.682;2023-02-14T13:49:02;101048.88;;;11.49;56.21
70930;BME280;58588;48.102;19.682;2023-02-14T13:52:08;101057.41;;;11.26;57.30
70930;BME280;58588;48.102;19.682;2023-02-14T13:55:16;101040.81;;;11.04;57.07
70930;BME280;58588;48.102;19.682;2023-02-14T13:58:21;101047.56;;;11.08;57.29
70930;BME280;58588;48.102;19.682;2023-02-14T14:01:30;101048.19;;;11.02;56.93
70930;BME280;58588;48.102;19.682;2023-02-14T14:04:34;101051.59;;;11.04;57.25
70930;BME280;58588;48.102;19.682;2023-02-14T14:07:36;101046.81;;;11.15;57.44
70930;BME280;58588;48.102;19.682;2023-02-14T14:10:43;101047.13;;;11.12;57.76
70930;BME280;58588;48.102;19.682;2023-02-14T14:13:58;101052.72;;;11.01;57.24
70930;BME280;58588;48.102;19.682;2023-02-14T14:17:22;101046.13;;;11.13;58.10
70930;BME280;58588;48.102;19.682;2023-02-14T14:20:39;101049.19;;;11.28;57.17
70930;BME280;58588;48.102;19.682;2023-02-14T14:23:43;101048.13;;;11.11;55.80
70930;BME280;58588;48.102;19.682;2023-02-14T14:26:46;101047.81;;;11.14;56.25
70930;BME280;58588;48.102;19.682;2023-02-14T14:29:51;101049.19;;;11.46;55.15
70930;BME280;58588;48.102;19.682;2023-02-14T14:32:54;101047.41;;;11.37;56.03
70930;BME280;58588;48.102;19.682;2023-02-14T14:35:58;101049.31;;;11.44;55.39
70930;BME280;58588;48.102;19.682;2023-02-14T14:39:01;101045.16;;;11.50;53.80
70930;BME280;58588;48.102;19.682;2023-02-14T14:42:08;101047.78;;;11.77;54.07
70930;BME280;58588;48.102;19.682;2023-02-14T14:45:21;101029.91;;;11.94;52.62
70930;BME280;58588;48.102;19.682;2023-02-14T14:48:30;101037.16;;;12.46;52.02
70930;BME280;58588;48.102;19.682;2023-02-14T14:51:34;101028.78;;;12.57;50.46
70930;BME280;58588;48.102;19.682;2023-02-14T14:54:38;101035.69;;;13.28;49.71
70930;BME280;58588;48.102;19.682;2023-02-14T14:57:47;101035.78;;;14.81;47.19
70930;BME280;58588;48.102;19.682;2023-02-14T15:00:51;101024.13;;;15.12;45.91
70930;BME280;58588;48.102;19.682;2023-02-14T15:04:14;101027.75;;;15.27;44.50
70930;BME280;58588;48.102;19.682;2023-02-14T15:07:19;101021.81;;;16.68;41.94
70930;BME280;58588;48.102;19.682;2023-02-14T15:10:25;101031.31;;;17.37;41.00
70930;BME280;58588;48.102;19.682;2023-02-14T15:13:34;101030.63;;;16.40;41.81
70930;BME280;58588;48.102;19.682;2023-02-14T15:16:53;101027.28;;;15.46;42.96
70930;BME280;58588;48.102;19.682;2023-02-14T15:20:00;101027.56;;;14.50;44.56
70930;BME280;58588;48.102;19.682;2023-02-14T15:23:03;101021.53;;;14.79;44.78
70930;BME280;58588;48.102;19.682;2023-02-14T15:26:06;101025.91;;;14.08;45.35
70930;BME280;58588;48.102;19.682;2023-02-14T15:29:27;101031.03;;;13.62;46.34
70930;BME280;58588;48.102;19.682;2023-02-14T15:32:33;101034.00;;;13.35;47.57
70930;BME280;58588;48.102;19.682;2023-02-14T15:35:38;101025.22;;;12.56;49.36
70930;BME280;58588;48.102;19.682;2023-02-14T15:38:42;101032.13;;;11.45;52.25
70930;BME280;58588;48.102;19.682;2023-02-14T15:41:44;101041.34;;;10.80;54.13
70930;BME280;58588;48.102;19.682;2023-02-14T15:44:46;101040.63;;;10.40;55.27
70930;BME280;58588;48.102;19.682;2023-02-14T15:47:51;101036.16;;;10.02;56.66
70930;BME280;58588;48.102;19.682;2023-02-14T15:50:56;101039.84;;;9.53;58.33
70930;BME280;58588;48.102;19.682;2023-02-14T15:54:00;101047.91;;;8.74;60.80
70930;BME280;58588;48.102;19.682;2023-02-14T15:57:04;101046.25;;;8.31;61.64
70930;BME280;58588;48.102;19.682;2023-02-14T16:00:15;101049.81;;;7.69;63.81
70930;BME280;58588;48.102;19.682;2023-02-14T16:03:20;101055.44;;;7.22;65.61